sensor_id;sensor_type;location;lat;lon;timestamp;temperature;humidity
74155;DHT22;62509;46.248;6.018;2024-03-06T00:04:55;7.90;88.70
74155;DHT22;62509;46.248;6.018;2024-03-06T00:09:58;7.80;88.90
74155;DHT22;62509;46.248;6.018;2024-03-06T00:15:03;7.80;89.20
74155;DHT22;62509;46.248;6.018;2024-03-06T00:20:07;7.80;89.40
74155;DHT22;62509;46.248;6.018;2024-03-06T00:25:12;7.90;89.30
74155;DHT22;62509;46.248;6.018;2024-03-06T00:30:17;7.90;89.40
74155;DHT22;62509;46.248;6.018;2024-03-06T00:35:20;7.90;89.40
74155;DHT22;62509;46.248;6.018;2024-03-06T00:40:23;7.90;89.40
74155;DHT22;62509;46.248;6.018;2024-03-06T00:45:27;7.90;89.50
74155;DHT22;62509;46.248;6.018;2024-03-06T00:50:31;7.80;89.40
74155;DHT22;62509;46.248;6.018;2024-03-06T00:55:34;7.80;89.50
74155;DHT22;62509;46.248;6.018;2024-03-06T01:00:38;7.80;89.30
74155;DHT22;62509;46.248;6.018;2024-03-06T01:05:41;7.80;89.40
74155;DHT22;62509;46.248;6.018;2024-03-06T01:10:44;7.90;89.40
74155;DHT22;62509;46.248;6.018;2024-03-06T01:15:49;7.90;89.10
74155;DHT22;62509;46.248;6.018;2024-03-06T01:20:52;7.80;89.20
74155;DHT22;62509;46.248;6.018;2024-03-06T01:25:56;7.70;89.20
74155;DHT22;62509;46.248;6.018;2024-03-06T01:31:00;7.70;89.20
74155;DHT22;62509;46.248;6.018;2024-03-06T01:36:04;7.70;89.20
74155;DHT22;62509;46.248;6.018;2024-03-06T01:41:07;7.70;89.10
74155;DHT22;62509;46.248;6.018;2024-03-06T01:46:12;7.70;89.20
74155;DHT22;62509;46.248;6.018;2024-03-06T01:51:15;7.70;89.30
74155;DHT22;62509;46.248;6.018;2024-03-06T01:56:18;7.70;89.20
74155;DHT22;62509;46.248;6.018;2024-03-06T02:01:23;7.70;89.10
74155;DHT22;62509;46.248;6.018;2024-03-06T02:06:26;7.60;88.90
74155;DHT22;62509;46.248;6.018;2024-03-06T02:11:29;7.60;88.80
74155;DHT22;62509;46.248;6.018;2024-03-06T02:16:35;7.50;88.90
74155;DHT22;62509;46.248;6.018;2024-03-06T02:21:39;7.50;89.10
74155;DHT22;62509;46.248;6.018;2024-03-06T02:26:43;7.50;89.00
74155;DHT22;62509;46.248;6.018;2024-03-06T02:31:46;7.50;88.70
74155;DHT22;62509;46.248;6.018;2024-03-06T02:36:51;7.40;88.60
74155;DHT22;62509;46.248;6.018;2024-03-06T02:41:54;7.30;88.50
74155;DHT22;62509;46.248;6.018;2024-03-06T02:46:58;7.30;88.60
74155;DHT22;62509;46.248;6.018;2024-03-06T02:52:03;7.30;88.50
74155;DHT22;62509;46.248;6.018;2024-03-06T02:57:06;7.30;88.70
74155;DHT22;62509;46.248;6.018;2024-03-06T03:02:09;7.20;89.00
74155;DHT22;62509;46.248;6.018;2024-03-06T03:07:14;7.10;88.90
74155;DHT22;62509;46.248;6.018;2024-03-06T03:12:18;7.20;89.00
74155;DHT22;62509;46.248;6.018;2024-03-06T03:17:21;7.10;88.80
74155;DHT22;62509;46.248;6.018;2024-03-06T03:22:26;7.10;89.00
74155;DHT22;62509;46.248;6.018;2024-03-06T03:27:29;7.10;89.00
74155;DHT22;62509;46.248;6.018;2024-03-06T03:32:32;7.00;89.00
74155;DHT22;62509;46.248;6.018;2024-03-06T03:37:37;6.90;89.00
74155;DHT22;62509;46.248;6.018;2024-03-06T03:42:40;6.80;88.80
74155;DHT22;62509;46.248;6.018;2024-03-06T03:47:43;6.70;89.20
74155;DHT22;62509;46.248;6.018;2024-03-06T03:52:47;6.80;89.10
74155;DHT22;62509;46.248;6.018;2024-03-06T03:57:50;6.80;89.00
74155;DHT22;62509;46.248;6.018;2024-03-06T04:02:54;6.80;88.90
74155;DHT22;62509;46.248;6.018;2024-03-06T04:07:59;6.80;88.90
74155;DHT22;62509;46.248;6.018;2024-03-06T04:13:02;6.90;89.00
74155;DHT22;62509;46.248;6.018;2024-03-06T04:18:05;6.90;89.00
74155;DHT22;62509;46.248;6.018;2024-03-06T04:23:10;6.90;89.20
74155;DHT22;62509;46.248;6.018;2024-03-06T04:28:13;6.90;89.20
74155;DHT22;62509;46.248;6.018;2024-03-06T04:33:16;6.90;89.30
74155;DHT22;62509;46.248;6.018;2024-03-06T04:38:21;6.90;89.40
74155;DHT22;62509;46.248;6.018;2024-03-06T04:43:24;6.90;89.30
74155;DHT22;62509;46.248;6.018;2024-03-06T04:48:27;6.80;89.30
74155;DHT22;62509;46.248;6.018;2024-03-06T04:53:31;6.90;89.30
74155;DHT22;62509;46.248;6.018;2024-03-06T04:58:34;6.80;89.10
74155;DHT22;62509;46.248;6.018;2024-03-06T05:03:38;6.80;89.20
74155;DHT22;62509;46.248;6.018;2024-03-06T05:08:59;6.90;89.30
74155;DHT22;62509;46.248;6.018;2024-03-06T05:14:22;6.90;88.80
74155;DHT22;62509;46.248;6.018;2024-03-06T05:19:42;6.80;88.90
74155;DHT22;62509;46.248;6.018;2024-03-06T05:25:05;6.80;89.10
74155;DHT22;62509;46.248;6.018;2024-03-06T05:30:26;6.90;89.30
74155;DHT22;62509;46.248;6.018;2024-03-06T05:35:47;7.00;89.10
74155;DHT22;62509;46.248;6.018;2024-03-06T05:41:09;7.00;89.00
74155;DHT22;62509;46.248;6.018;2024-03-06T05:46:30;6.90;88.80
74155;DHT22;62509;46.248;6.018;2024-03-06T05:51:51;6.70;88.70
74155;DHT22;62509;46.248;6.018;2024-03-06T05:57:13;6.50;89.20
74155;DHT22;62509;46.248;6.018;2024-03-06T06:02:34;6.60;89.50
74155;DHT22;62509;46.248;6.018;2024-03-06T06:07:37;6.70;89.30
74155;DHT22;62509;46.248;6.018;2024-03-06T06:12:42;6.60;89.40
74155;DHT22;62509;46.248;6.018;2024-03-06T06:17:45;6.60;89.50
74155;DHT22;62509;46.248;6.018;2024-03-06T06:22:48;6.70;89.80
74155;DHT22;62509;46.248;6.018;2024-03-06T06:27:53;6.80;89.90
74155;DHT22;62509;46.248;6.018;2024-03-06T06:32:57;6.80;89.90
74155;DHT22;62509;46.248;6.018;2024-03-06T06:38:00;6.80;89.30
74155;DHT22;62509;46.248;6.018;2024-03-06T06:43:05;6.80;89.40
74155;DHT22;62509;46.248;6.018;2024-03-06T06:48:08;6.80;89.40
74155;DHT22;62509;46.248;6.018;2024-03-06T06:53:11;6.90;89.50
74155;DHT22;62509;46.248;6.018;2024-03-06T06:58:16;6.90;89.60
74155;DHT22;62509;46.248;6.018;2024-03-06T07:03:19;7.10;89.90
74155;DHT22;62509;46.248;6.018;2024-03-06T07:08:23;7.10;90.00
74155;DHT22;62509;46.248;6.018;2024-03-06T07:13:27;7.20;90.00
74155;DHT22;62509;46.248;6.018;2024-03-06T07:18:30;7.30;90.00
74155;DHT22;62509;46.248;6.018;2024-03-06T07:23:34;7.40;90.00
74155;DHT22;62509;46.248;6.018;2024-03-06T07:28:39;7.50;90.00
74155;DHT22;62509;46.248;6.018;2024-03-06T07:33:42;7.50;90.00
74155;DHT22;62509;46.248;6.018;2024-03-06T07:38:46;7.50;90.10
74155;DHT22;62509;46.248;6.018;2024-03-06T07:43:51;7.60;90.10
74155;DHT22;62509;46.248;6.018;2024-03-06T07:48:54;7.70;90.10
74155;DHT22;62509;46.248;6.018;2024-03-06T07:53:57;7.70;90.10
74155;DHT22;62509;46.248;6.018;2024-03-06T07:59:02;7.80;90.10
74155;DHT22;62509;46.248;6.018;2024-03-06T08:04:06;7.80;90.10
74155;DHT22;62509;46.248;6.018;2024-03-06T08:09:09;7.90;90.10
74155;DHT22;62509;46.248;6.018;2024-03-06T08:14:14;8.00;90.20
74155;DHT22;62509;46.248;6.018;2024-03-06T08:19:19;8.10;90.10
74155;DHT22;62509;46.248;6.018;2024-03-06T08:24:22;8.10;90.10
74155;DHT22;62509;46.248;6.018;2024-03-06T08:29:27;8.30;90.10
74155;DHT22;62509;46.248;6.018;2024-03-06T08:34:30;8.30;90.00
74155;DHT22;62509;46.248;6.018;2024-03-06T08:39:33;8.40;90.10
74155;DHT22;62509;46.248;6.018;2024-03-06T08:44:38;8.50;90.10
74155;DHT22;62509;46.248;6.018;2024-03-06T08:49:41;8.60;90.20
74155;DHT22;62509;46.248;6.018;2024-03-06T08:54:44;8.70;90.30
74155;DHT22;62509;46.248;6.018;2024-03-06T08:59:49;8.80;90.20
74155;DHT22;62509;46.248;6.018;2024-03-06T09:04:55;8.90;90.30
74155;DHT22;62509;46.248;6.018;2024-03-06T09:09:58;9.00;90.20
74155;DHT22;62509;46.248;6.018;2024-03-06T09:15:03;9.10;90.20
74155;DHT22;62509;46.248;6.018;2024-03-06T09:20:09;9.10;90.20
74155;DHT22;62509;46.248;6.018;2024-03-06T09:25:15;9.20;90.30
74155;DHT22;62509;46.248;6.018;2024-03-06T09:30:19;9.30;90.30
74155;DHT22;62509;46.248;6.018;2024-03-06T09:35:22;9.30;90.20
74155;DHT22;62509;46.248;6.018;2024-03-06T09:40:26;9.40;90.20
74155;DHT22;62509;46.248;6.018;2024-03-06T09:45:31;9.40;90.20
74155;DHT22;62509;46.248;6.018;2024-03-06T09:50:34;9.50;90.20
74155;DHT22;62509;46.248;6.018;2024-03-06T09:55:43;9.50;90.20
74155;DHT22;62509;46.248;6.018;2024-03-06T10:00:49;9.60;90.20
74155;DHT22;62509;46.248;6.018;2024-03-06T10:05:53;9.70;90.20
74155;DHT22;62509;46.248;6.018;2024-03-06T10:10:57;9.80;90.20
74155;DHT22;62509;46.248;6.018;2024-03-06T10:16:02;9.90;90.10
74155;DHT22;62509;46.248;6.018;2024-03-06T10:21:10;10.00;90.10
74155;DHT22;62509;46.248;6.018;2024-03-06T10:26:13;10.20;90.00
74155;DHT22;62509;46.248;6.018;2024-03-06T10:31:26;10.40;90.10
74155;DHT22;62509;46.248;6.018;2024-03-06T10:36:31;10.60;90.00
74155;DHT22;62509;46.248;6.018;2024-03-06T10:41:34;10.90;89.90
74155;DHT22;62509;46.248;6.018;2024-03-06T10:46:40;11.10;89.60
74155;DHT22;62509;46.248;6.018;2024-03-06T10:51:46;11.20;88.90
74155;DHT22;62509;46.248;6.018;2024-03-06T10:56:50;11.00;88.50
74155;DHT22;62509;46.248;6.018;2024-03-06T11:01:56;10.80;88.90
74155;DHT22;62509;46.248;6.018;2024-03-06T11:07:02;10.80;89.00
74155;DHT22;62509;46.248;6.018;2024-03-06T11:12:06;10.80;88.90
74155;DHT22;62509;46.248;6.018;2024-03-06T11:17:11;10.80;88.40
74155;DHT22;62509;46.248;6.018;2024-03-06T11:22:15;10.70;88.40
74155;DHT22;62509;46.248;6.018;2024-03-06T11:27:18;10.60;88.20
74155;DHT22;62509;46.248;6.018;2024-03-06T11:32:25;10.60;88.50
74155;DHT22;62509;46.248;6.018;2024-03-06T11:37:29;10.70;88.60
74155;DHT22;62509;46.248;6.018;2024-03-06T11:42:36;10.70;88.30
74155;DHT22;62509;46.248;6.018;2024-03-06T11:53:10;10.60;88.00
74155;DHT22;62509;46.248;6.018;2024-03-06T11:58:13;10.60;87.70
74155;DHT22;62509;46.248;6.018;2024-03-06T12:03:17;10.60;87.80
74155;DHT22;62509;46.248;6.018;2024-03-06T12:08:21;10.60;87.50
74155;DHT22;62509;46.248;6.018;2024-03-06T12:13:25;10.50;87.30
74155;DHT22;62509;46.248;6.018;2024-03-06T12:18:28;10.50;87.50
74155;DHT22;62509;46.248;6.018;2024-03-06T12:23:33;10.60;87.40
74155;DHT22;62509;46.248;6.018;2024-03-06T12:28:36;10.70;87.30
74155;DHT22;62509;46.248;6.018;2024-03-06T12:33:39;10.80;87.50
74155;DHT22;62509;46.248;6.018;2024-03-06T12:38:53;11.00;87.20
74155;DHT22;62509;46.248;6.018;2024-03-06T12:43:57;11.00;87.00
74155;DHT22;62509;46.248;6.018;2024-03-06T12:49:00;10.90;86.90
74155;DHT22;62509;46.248;6.018;2024-03-06T12:54:04;10.80;86.70
74155;DHT22;62509;46.248;6.018;2024-03-06T12:59:08;10.70;86.60
74155;DHT22;62509;46.248;6.018;2024-03-06T13:04:12;10.70;86.60
74155;DHT22;62509;46.248;6.018;2024-03-06T13:09:17;10.50;86.50
74155;DHT22;62509;46.248;6.018;2024-03-06T13:14:20;10.50;86.70
74155;DHT22;62509;46.248;6.018;2024-03-06T13:19:23;10.60;86.90
74155;DHT22;62509;46.248;6.018;2024-03-06T13:24:28;10.80;86.90
74155;DHT22;62509;46.248;6.018;2024-03-06T13:29:31;10.90;86.70
74155;DHT22;62509;46.248;6.018;2024-03-06T13:34:34;11.10;86.70
74155;DHT22;62509;46.248;6.018;2024-03-06T13:39:39;11.30;86.50
74155;DHT22;62509;46.248;6.018;2024-03-06T13:44:42;11.40;86.60
74155;DHT22;62509;46.248;6.018;2024-03-06T13:49:46;11.60;86.30
74155;DHT22;62509;46.248;6.018;2024-03-06T13:54:51;11.70;85.90
74155;DHT22;62509;46.248;6.018;2024-03-06T13:59:54;11.80;85.60
74155;DHT22;62509;46.248;6.018;2024-03-06T14:04:57;11.70;85.40
74155;DHT22;62509;46.248;6.018;2024-03-06T14:10:02;11.40;85.30
74155;DHT22;62509;46.248;6.018;2024-03-06T14:15:07;11.30;85.60
74155;DHT22;62509;46.248;6.018;2024-03-06T14:20:14;11.20;85.60
74155;DHT22;62509;46.248;6.018;2024-03-06T14:25:20;11.30;85.70
74155;DHT22;62509;46.248;6.018;2024-03-06T14:30:24;11.30;85.80
74155;DHT22;62509;46.248;6.018;2024-03-06T14:35:27;11.50;86.30
74155;DHT22;62509;46.248;6.018;2024-03-06T14:40:31;11.60;85.90
74155;DHT22;62509;46.248;6.018;2024-03-06T14:45:35;11.70;85.80
74155;DHT22;62509;46.248;6.018;2024-03-06T14:50:43;11.80;85.30
74155;DHT22;62509;46.248;6.018;2024-03-06T14:55:48;11.80;85.10
74155;DHT22;62509;46.248;6.018;2024-03-06T15:00:52;11.70;84.80
74155;DHT22;62509;46.248;6.018;2024-03-06T15:05:55;11.50;84.70
74155;DHT22;62509;46.248;6.018;2024-03-06T15:11:00;11.40;84.90
74155;DHT22;62509;46.248;6.018;2024-03-06T15:16:03;11.40;85.10
74155;DHT22;62509;46.248;6.018;2024-03-06T15:21:07;11.20;85.00
74155;DHT22;62509;46.248;6.018;2024-03-06T15:26:11;11.00;84.90
74155;DHT22;62509;46.248;6.018;2024-03-06T15:31:14;10.80;84.90
74155;DHT22;62509;46.248;6.018;2024-03-06T15:36:18;10.70;85.00
74155;DHT22;62509;46.248;6.018;2024-03-06T15:41:22;10.50;85.00
74155;DHT22;62509;46.248;6.018;2024-03-06T15:46:25;10.40;85.10
74155;DHT22;62509;46.248;6.018;2024-03-06T15:51:28;10.40;85.30
74155;DHT22;62509;46.248;6.018;2024-03-06T15:56:33;10.50;85.30
74155;DHT22;62509;46.248;6.018;2024-03-06T16:01:36;10.60;85.30
74155;DHT22;62509;46.248;6.018;2024-03-06T16:06:39;10.50;84.90
74155;DHT22;62509;46.248;6.018;2024-03-06T16:11:44;10.50;84.90
74155;DHT22;62509;46.248;6.018;2024-03-06T16:16:47;10.60;85.00
74155;DHT22;62509;46.248;6.018;2024-03-06T16:21:50;10.60;84.70
74155;DHT22;62509;46.248;6.018;2024-03-06T16:26:55;10.60;84.60
74155;DHT22;62509;46.248;6.018;2024-03-06T16:31:58;10.50;84.50
74155;DHT22;62509;46.248;6.018;2024-03-06T16:37:04;10.50;84.50
74155;DHT22;62509;46.248;6.018;2024-03-06T16:42:09;10.50;84.30
74155;DHT22;62509;46.248;6.018;2024-03-06T16:47:12;10.40;84.20
74155;DHT22;62509;46.248;6.018;2024-03-06T16:52:15;10.30;84.30
74155;DHT22;62509;46.248;6.018;2024-03-06T16:57:20;10.10;84.30
74155;DHT22;62509;46.248;6.018;2024-03-06T17:02:23;10.00;84.30
74155;DHT22;62509;46.248;6.018;2024-03-06T17:07:26;10.00;84.40
74155;DHT22;62509;46.248;6.018;2024-03-06T17:12:30;9.90;84.40
74155;DHT22;62509;46.248;6.018;2024-03-06T17:17:33;9.80;84.30
74155;DHT22;62509;46.248;6.018;2024-03-06T17:22:38;9.80;84.30
74155;DHT22;62509;46.248;6.018;2024-03-06T17:27:42;9.70;84.20
74155;DHT22;62509;46.248;6.018;2024-03-06T17:32:46;9.60;84.30
74155;DHT22;62509;46.248;6.018;2024-03-06T17:37:50;9.60;84.30
74155;DHT22;62509;46.248;6.018;2024-03-06T17:42:54;9.60;84.30
74155;DHT22;62509;46.248;6.018;2024-03-06T17:47:58;9.60;84.30
74155;DHT22;62509;46.248;6.018;2024-03-06T17:53:01;9.60;84.30
74155;DHT22;62509;46.248;6.018;2024-03-06T17:58:07;9.60;84.40
74155;DHT22;62509;46.248;6.018;2024-03-06T18:03:10;9.60;84.50
74155;DHT22;62509;46.248;6.018;2024-03-06T18:08:13;9.60;84.50
74155;DHT22;62509;46.248;6.018;2024-03-06T18:13:18;9.50;84.50
74155;DHT22;62509;46.248;6.018;2024-03-06T18:18:21;9.50;84.40
74155;DHT22;62509;46.248;6.018;2024-03-06T18:23:24;9.40;84.30
74155;DHT22;62509;46.248;6.018;2024-03-06T18:28:30;9.30;84.20
74155;DHT22;62509;46.248;6.018;2024-03-06T18:33:33;9.20;84.10
74155;DHT22;62509;46.248;6.018;2024-03-06T18:38:36;9.20;84.10
74155;DHT22;62509;46.248;6.018;2024-03-06T18:43:41;9.10;84.00
74155;DHT22;62509;46.248;6.018;2024-03-06T18:48:48;9.00;84.00
74155;DHT22;62509;46.248;6.018;2024-03-06T18:53:51;9.00;83.90
74155;DHT22;62509;46.248;6.018;2024-03-06T18:58:56;9.00;83.90
74155;DHT22;62509;46.248;6.018;2024-03-06T19:03:59;8.90;83.80
74155;DHT22;62509;46.248;6.018;2024-03-06T19:09:02;8.90;83.70
74155;DHT22;62509;46.248;6.018;2024-03-06T19:14:08;8.70;83.50
74155;DHT22;62509;46.248;6.018;2024-03-06T19:19:11;8.50;83.50
74155;DHT22;62509;46.248;6.018;2024-03-06T19:24:15;8.30;83.50
74155;DHT22;62509;46.248;6.018;2024-03-06T19:29:19;8.10;83.60
74155;DHT22;62509;46.248;6.018;2024-03-06T19:34:23;8.00;83.80
74155;DHT22;62509;46.248;6.018;2024-03-06T19:39:26;8.00;83.70
74155;DHT22;62509;46.248;6.018;2024-03-06T19:44:30;7.90;83.70
74155;DHT22;62509;46.248;6.018;2024-03-06T19:49:34;7.90;83.80
74155;DHT22;62509;46.248;6.018;2024-03-06T19:54:37;8.00;83.80
74155;DHT22;62509;46.248;6.018;2024-03-06T19:59:41;8.00;83.80
74155;DHT22;62509;46.248;6.018;2024-03-06T20:04:44;8.10;83.70
74155;DHT22;62509;46.248;6.018;2024-03-06T20:09:48;8.00;83.50
74155;DHT22;62509;46.248;6.018;2024-03-06T20:14:54;8.00;83.40
74155;DHT22;62509;46.248;6.018;2024-03-06T20:19:58;7.90;83.40
74155;DHT22;62509;46.248;6.018;2024-03-06T20:25:01;7.90;83.20
74155;DHT22;62509;46.248;6.018;2024-03-06T20:30:07;7.80;83.20
74155;DHT22;62509;46.248;6.018;2024-03-06T20:35:10;7.60;83.60
74155;DHT22;62509;46.248;6.018;2024-03-06T20:40:14;7.50;83.60
74155;DHT22;62509;46.248;6.018;2024-03-06T20:45:19;7.40;83.30
74155;DHT22;62509;46.248;6.018;2024-03-06T20:50:22;7.30;83.70
74155;DHT22;62509;46.248;6.018;2024-03-06T20:55:25;7.10;83.60
74155;DHT22;62509;46.248;6.018;2024-03-06T21:00:32;7.10;83.80
74155;DHT22;62509;46.248;6.018;2024-03-06T21:05:35;7.20;83.70
74155;DHT22;62509;46.248;6.018;2024-03-06T21:10:38;7.20;83.40
74155;DHT22;62509;46.248;6.018;2024-03-06T21:15:43;7.10;83.10
74155;DHT22;62509;46.248;6.018;2024-03-06T21:20:47;7.00;83.30
74155;DHT22;62509;46.248;6.018;2024-03-06T21:25:50;6.90;83.60
74155;DHT22;62509;46.248;6.018;2024-03-06T21:30:55;6.80;83.60
74155;DHT22;62509;46.248;6.018;2024-03-06T21:35:58;6.80;83.60
74155;DHT22;62509;46.248;6.018;2024-03-06T21:41:01;6.80;83.50
74155;DHT22;62509;46.248;6.018;2024-03-06T21:46:06;6.80;83.60
74155;DHT22;62509;46.248;6.018;2024-03-06T21:51:13;6.90;83.70
74155;DHT22;62509;46.248;6.018;2024-03-06T21:56:16;6.80;83.50
74155;DHT22;62509;46.248;6.018;2024-03-06T22:01:20;6.80;83.60
74155;DHT22;62509;46.248;6.018;2024-03-06T22:06:24;6.80;83.50
74155;DHT22;62509;46.248;6.018;2024-03-06T22:11:27;6.80;83.50
74155;DHT22;62509;46.248;6.018;2024-03-06T22:16:32;6.90;83.50
74155;DHT22;62509;46.248;6.018;2024-03-06T22:21:35;6.90;83.30
74155;DHT22;62509;46.248;6.018;2024-03-06T22:26:39;6.80;83.30
74155;DHT22;62509;46.248;6.018;2024-03-06T22:31:43;6.70;83.30
74155;DHT22;62509;46.248;6.018;2024-03-06T22:36:47;6.70;83.20
74155;DHT22;62509;46.248;6.018;2024-03-06T22:41:52;6.60;83.00
74155;DHT22;62509;46.248;6.018;2024-03-06T22:46:57;6.60;83.30
74155;DHT22;62509;46.248;6.018;2024-03-06T22:52:00;6.50;83.10
74155;DHT22;62509;46.248;6.018;2024-03-06T22:57:03;6.50;83.20
74155;DHT22;62509;46.248;6.018;2024-03-06T23:02:08;6.40;83.00
74155;DHT22;62509;46.248;6.018;2024-03-06T23:07:12;6.30;82.80
74155;DHT22;62509;46.248;6.018;2024-03-06T23:12:15;6.30;83.00
74155;DHT22;62509;46.248;6.018;2024-03-06T23:17:22;6.40;83.10
74155;DHT22;62509;46.248;6.018;2024-03-06T23:22:25;6.30;82.90
74155;DHT22;62509;46.248;6.018;2024-03-06T23:27:29;6.40;83.00
74155;DHT22;62509;46.248;6.018;2024-03-06T23:32:33;6.20;83.10
74155;DHT22;62509;46.248;6.018;2024-03-06T23:37:37;6.20;83.50
74155;DHT22;62509;46.248;6.018;2024-03-06T23:42:40;6.20;83.40
74155;DHT22;62509;46.248;6.018;2024-03-06T23:47:46;6.30;83.20
74155;DHT22;62509;46.248;6.018;2024-03-06T23:52:51;6.20;83.20
74155;DHT22;62509;46.248;6.018;2024-03-06T23:57:54;6.20;83.20
